»·PEaware :: AAY502 KLAS-KSMX

AAY502 :: KLAS-KSMX

FLIGHT INFORMATION

Flight Status: Arrived
Operator:
Allegiant Air
More flights by this operator :: More flights under this callsign
Pilot: Chandler S. (807)
Aircraft: MCDONNELL-DOUGLAS MD-88
(MD88)
More flights by this aircraft type
Origin: KLAS McCarran Intl
United States
Destination: KSMX Santa Maria Pub/Capt Hancock
United States
More flights between these airports :: More routes between these airports
Route: BOACH8 HEC PMD FIM RZS KOAKS
File this flight plan on PilotEdge
Remarks:
Altitude:
(Current/Filed)
28,000ft
Speed:
(Current/Filed)
300kts
Departed: 21-Nov-17 08:34 PM
Arrived: 21-Nov-17 09:26 PM
Distance/Time
Traveled:
268nm/0:51
Distance/Time
To Go:
Arrived

Flight Plot

Page will automatically refresh every two minutes.

Flight plan parsing failed; only flown route is shown


Map Options




Map Legend


Flown Route
Filed Route
Departure Airport
Arrival Airport
Navaid (VOR, NDB)
Fix

Horizontal Profiles

Position Reports

Time Latitude Longitude Heading Altitude Ground
Speed
21-Nov-17 20:10 36.085527 -115.155135 111 2147ft 0kts
21-Nov-17 20:11 36.085527 -115.155135 111 2147ft 0kts
21-Nov-17 20:12 36.085527 -115.155135 111 2147ft 0kts
21-Nov-17 20:13 36.085527 -115.155135 111 2147ft 0kts
21-Nov-17 20:14 36.085527 -115.155135 111 2147ft 0kts
21-Nov-17 20:15 36.085527 -115.155135 111 2147ft 0kts
21-Nov-17 20:16 36.085527 -115.155135 111 2147ft 0kts
21-Nov-17 20:17 36.085527 -115.155135 111 2147ft 0kts
21-Nov-17 20:18 36.085527 -115.155135 111 2147ft 0kts
21-Nov-17 20:19 36.085527 -115.155135 111 2147ft 0kts
21-Nov-17 20:20 36.085527 -115.155135 111 2147ft 0kts
21-Nov-17 20:21 36.085527 -115.155135 111 2147ft 0kts
21-Nov-17 20:22 36.085527 -115.155135 111 2147ft 0kts
21-Nov-17 20:23 36.085527 -115.155135 111 2147ft 0kts
21-Nov-17 20:24 36.085734 -115.155471 146 2147ft 2kts
21-Nov-17 20:25 36.086294 -115.155550 203 2147ft 2kts
21-Nov-17 20:26 36.086545 -115.155387 206 2147ft 0kts
21-Nov-17 20:27 36.086545 -115.155388 205 2147ft 0kts
21-Nov-17 20:28 36.086545 -115.155388 205 2147ft 0kts
21-Nov-17 20:29 36.086545 -115.155388 205 2147ft 0kts
21-Nov-17 20:30 36.086545 -115.155388 205 2147ft 0kts
21-Nov-17 20:31 36.086545 -115.155388 205 2147ft 0kts
21-Nov-17 20:32 36.085150 -115.156249 215 2147ft 0kts
21-Nov-17 20:33 36.084962 -115.156981 332 2147ft 9kts
21-Nov-17 20:34 36.089245 -115.156683 25 2147ft 21kts
21-Nov-17 20:35 36.095679 -115.152943 25 2147ft 23kts
21-Nov-17 20:36 36.097921 -115.152354 287 2147ft 0kts
21-Nov-17 20:37 36.097921 -115.152354 287 2147ft 0kts
21-Nov-17 20:38 36.098010 -115.152689 288 2147ft 11kts
21-Nov-17 20:39 36.066010 -115.172292 205 3313ft 235kts
21-Nov-17 20:40 36.034818 -115.189980 206 4947ft 203kts
21-Nov-17 20:41 36.001174 -115.235843 240 6934ft 193kts
21-Nov-17 20:42 35.972478 -115.302004 240 7067ft 236kts
21-Nov-17 20:43 35.921042 -115.328149 172 7015ft 215kts
21-Nov-17 20:44 35.864236 -115.323222 172 9379ft 220kts
21-Nov-17 20:45 35.801920 -115.315991 173 12112ft 236kts
21-Nov-17 20:46 35.738494 -115.303261 173 14920ft 231kts
21-Nov-17 20:47 35.676661 -115.295216 182 17116ft 240kts
21-Nov-17 20:48 35.609666 -115.341514 252 17639ft 336kts
21-Nov-17 20:49 35.563210 -115.444484 234 20776ft 364kts
21-Nov-17 20:50 35.496124 -115.538982 231 23831ft 374kts
21-Nov-17 20:51 35.425625 -115.632293 231 26774ft 372kts
21-Nov-17 20:52 35.353849 -115.726944 230 28056ft 408kts
21-Nov-17 20:53 35.271173 -115.835851 229 28069ft 465kts
21-Nov-17 20:54 35.182071 -115.953248 230 28018ft 472kts
21-Nov-17 20:55 35.093284 -116.070477 230 28011ft 472kts
21-Nov-17 20:56 35.004289 -116.188151 230 28011ft 472kts
21-Nov-17 20:57 34.915465 -116.305763 230 28005ft 473kts
21-Nov-17 20:58 34.826814 -116.423292 230 27979ft 475kts
21-Nov-17 20:59 34.784897 -116.568514 267 27989ft 461kts
21-Nov-17 21:00 34.769881 -116.723163 264 27983ft 463kts
21-Nov-17 21:01 34.753810 -116.872407 264 27981ft 464kts
21-Nov-17 21:02 34.737328 -117.027028 264 28004ft 462kts
21-Nov-17 21:03 34.721032 -117.180954 263 28024ft 459kts
21-Nov-17 21:04 34.704935 -117.334610 264 28024ft 458kts
21-Nov-17 21:05 34.689121 -117.487775 264 28024ft 457kts
21-Nov-17 21:06 34.673597 -117.639978 264 28021ft 457kts
21-Nov-17 21:07 34.658293 -117.791907 264 28003ft 458kts
21-Nov-17 21:08 34.642943 -117.946190 264 27999ft 458kts
21-Nov-17 21:09 34.623661 -118.095456 264 27991ft 457kts
21-Nov-17 21:10 34.615490 -118.248723 266 28009ft 457kts
21-Nov-17 21:11 34.604141 -118.402089 266 27977ft 458kts
21-Nov-17 21:12 34.592784 -118.555471 266 27891ft 459kts
21-Nov-17 21:13 34.581666 -118.708028 265 27871ft 459kts
21-Nov-17 21:14 34.570732 -118.861763 265 27855ft 458kts
21-Nov-17 21:15 34.560086 -119.014831 263 27834ft 456kts
21-Nov-17 21:16 34.549368 -119.167393 263 26175ft 446kts
21-Nov-17 21:17 34.539371 -119.313979 264 22939ft 431kts
21-Nov-17 21:18 34.529890 -119.456101 264 19669ft 413kts
21-Nov-17 21:19 34.521416 -119.585536 265 16168ft 367kts
21-Nov-17 21:20 34.513827 -119.703128 265 12787ft 342kts
21-Nov-17 21:21 34.525782 -119.812224 303 9704ft 340kts
21-Nov-17 21:22 34.575816 -119.910001 300 6932ft 343kts
21-Nov-17 21:23 34.620094 -120.002005 300 4609ft 296kts
21-Nov-17 21:24 34.659391 -120.084124 300 3959ft 275kts
21-Nov-17 21:25 34.698661 -120.165938 300 3127ft 269kts
21-Nov-17 21:26 34.735692 -120.243118 300 2994ft 267kts
21-Nov-17 21:27 34.778608 -120.311366 317 3207ft 215kts
21-Nov-17 21:28 34.816765 -120.354956 316 2448ft 178kts
21-Nov-17 21:29 34.853156 -120.398467 315 1459ft 171kts
21-Nov-17 21:30 34.884378 -120.435870 316 601ft 150kts
21-Nov-17 21:31 34.904712 -120.459893 342 267ft 19kts
21-Nov-17 21:32 34.905568 -120.458759 110 267ft 11kts
21-Nov-17 21:33 34.901057 -120.453169 134 267ft 26kts
21-Nov-17 21:34 34.899523 -120.449576 134 267ft 13kts
21-Nov-17 21:35 34.898591 -120.448170 97 267ft 0kts
21-Nov-17 21:36 34.898591 -120.448170 97 267ft 0kts
21-Nov-17 21:37 34.898591 -120.448170 97 267ft 0kts

Navigation Log

Ident Type
Flight plan parsing failed, navigation log unavailable